Time;durP1;ratioP1;P1;durP2;ratioP2;P2;SDS_P1;SDS_P2;PMS_P1;PMS_P2;Temp;Humidity;BMP_temperature;BMP_pressure;BME280_temperature;BME280_humidity;BME280_pressure;Samples;Min_cycle;Max_cycle;Signal;HPM_P1;HPM_P2
2021/11/07 00:04:45;;;;;;;7.88;4.57;;;9.30;99.90;;;;;;5025440;28;20446;-74
2021/11/07 00:07:25;;;;;;;13.02;6.30;;;9.30;99.90;;;;;;5025465;28;20459;-75
2021/11/07 00:10:04;;;;;;;13.35;6.72;;;9.30;99.90;;;;;;5023805;28;20030;-74
2021/11/07 00:12:31;;;;;;;12.10;5.80;;;9.30;99.90;;;;;;5027972;28;20033;-72
2021/11/07 00:14:58;;;;;;;13.27;5.63;;;9.30;99.90;;;;;;5045108;28;20584;-74
2021/11/07 00:17:27;;;;;;;17.98;5.68;;;9.30;99.90;;;;;;5044667;28;20029;-76
2021/11/07 00:20:30;;;;;;;13.00;6.53;;;9.30;99.90;;;;;;5044978;28;20029;-79
2021/11/07 00:25:27;;;;;;;7.95;4.88;;;9.30;99.90;;;;;;5044624;28;20032;-79
2021/11/07 00:27:59;;;;;;;10.05;5.72;;;9.30;99.90;;;;;;5044479;28;20022;-74
2021/11/07 00:30:37;;;;;;;17.75;5.85;;;9.30;99.90;;;;;;5044876;28;20443;-76
2021/11/07 00:33:15;;;;;;;13.02;5.57;;;9.30;99.90;;;;;;5044715;28;20026;-75
2021/11/07 00:38:18;;;;;;;12.63;5.80;;;9.30;99.90;;;;;;5044586;28;20022;-75
2021/11/07 00:40:52;;;;;;;10.18;4.63;;;9.30;99.90;;;;;;5044779;28;20115;-76
2021/11/07 00:43:29;;;;;;;10.07;5.53;;;9.30;99.90;;;;;;5044585;28;20545;-75
2021/11/07 00:46:07;;;;;;;8.43;4.82;;;9.30;99.90;;;;;;5044660;28;20065;-74
2021/11/07 00:51:14;;;;;;;8.50;4.25;;;9.30;99.90;;;;;;5044418;28;20064;-76
2021/11/07 01:01:51;;;;;;;8.60;5.03;;;9.30;99.90;;;;;;5048806;28;20531;-74
2021/11/07 01:04:18;;;;;;;12.95;5.70;;;9.30;99.90;;;;;;5048416;28;20034;-74
2021/11/07 01:06:44;;;;;;;9.35;4.85;;;9.30;99.90;;;;;;5048491;28;20047;-75
2021/11/07 01:09:10;;;;;;;12.40;5.28;;;9.30;99.90;;;;;;5046892;28;20030;-74
2021/11/07 01:11:37;;;;;;;7.05;4.38;;;9.30;99.90;;;;;;5048410;28;20117;-76
2021/11/07 01:14:06;;;;;;;13.60;4.68;;;9.30;99.90;;;;;;5048477;28;20035;-76
2021/11/07 01:16:33;;;;;;;8.15;4.45;;;9.30;99.90;;;;;;5048104;28;20017;-77
2021/11/07 01:18:59;;;;;;;8.00;4.40;;;9.30;99.90;;;;;;5046835;28;20440;-78
2021/11/07 01:21:27;;;;;;;10.80;4.45;;;9.30;99.90;;;;;;5048275;28;20029;-74
2021/11/07 01:24:05;;;;;;;10.52;5.55;;;9.30;99.90;;;;;;5047923;28;20038;-75
2021/11/07 01:26:38;;;;;;;9.57;4.75;;;9.30;99.90;;;;;;5048336;28;20021;-77
2021/11/07 01:29:21;;;;;;;9.57;4.95;;;9.30;99.90;;;;;;5047890;28;20457;-77
2021/11/07 01:31:48;;;;;;;7.00;3.95;;;9.30;99.90;;;;;;5046694;28;20045;-76
2021/11/07 01:34:22;;;;;;;8.38;4.47;;;9.30;99.90;;;;;;5047915;28;20025;-78
2021/11/07 01:36:58;;;;;;;;;;;9.40;99.90;;;;;;5048252;28;20108;-75
2021/11/07 01:39:37;;;;;;;9.38;4.70;;;9.40;99.90;;;;;;5047546;28;19905;-82
2021/11/07 01:42:10;;;;;;;6.78;3.80;;;9.30;99.90;;;;;;5046365;28;20071;-76
2021/11/07 01:44:50;;;;;;;9.18;4.00;;;9.30;99.90;;;;;;5047708;28;20386;-74
2021/11/07 01:47:17;;;;;;;12.30;5.13;;;9.30;99.90;;;;;;5046233;28;20490;-77
2021/11/07 01:49:43;;;;;;;8.98;3.95;;;9.30;99.90;;;;;;5047651;28;20029;-74
2021/11/07 01:52:11;;;;;;;9.73;4.72;;;9.30;99.90;;;;;;5046507;28;20067;-76
2021/11/07 01:57:28;;;;;;;6.78;3.95;;;9.30;99.90;;;;;;5047327;28;20116;-74
2021/11/07 01:59:58;;;;;;;9.00;4.70;;;9.30;99.90;;;;;;5047122;28;20028;-74
2021/11/07 02:02:29;;;;;;;10.30;4.03;;;9.30;99.90;;;;;;5045722;28;20053;-78
2021/11/07 02:04:56;;;;;;;10.38;5.47;;;9.30;99.90;;;;;;5047643;28;20113;-74
2021/11/07 02:07:23;;;;;;;7.95;4.07;;;9.30;99.90;;;;;;5046389;28;20025;-77
2021/11/07 02:09:49;;;;;;;10.88;4.53;;;9.30;99.90;;;;;;5045817;28;20030;-77
2021/11/07 02:12:15;;;;;;;8.95;4.20;;;9.30;99.90;;;;;;5047084;28;20040;-80
2021/11/07 02:14:42;;;;;;;7.97;4.45;;;9.30;99.90;;;;;;5047006;28;20057;-78
2021/11/07 02:17:09;;;;;;;6.28;3.50;;;9.30;99.90;;;;;;5045977;28;20052;-74
2021/11/07 02:19:36;;;;;;;5.35;3.30;;;9.30;99.90;;;;;;5047212;28;20032;-77
2021/11/07 02:22:02;;;;;;;7.47;2.78;;;9.30;99.90;;;;;;5045473;28;20113;-76
2021/11/07 02:24:28;;;;;;;5.50;3.15;;;9.30;99.90;;;;;;5045439;28;20029;-75
2021/11/07 02:27:01;;;;;;;10.07;3.05;;;9.30;99.90;;;;;;5046650;28;20068;-73
2021/11/07 02:29:29;;;;;;;4.88;1.63;;;9.30;99.90;;;;;;5046502;28;20556;-78
2021/11/07 02:31:57;;;;;;;3.53;1.60;;;9.30;99.90;;;;;;5046641;28;20029;-74
2021/11/07 02:34:28;;;;;;;2.92;1.65;;;9.30;99.90;;;;;;5046809;28;20033;-74
2021/11/07 02:36:54;;;;;;;2.33;1.33;;;9.40;99.90;;;;;;5046322;28;20101;-80
2021/11/07 02:39:22;;;;;;;1.48;0.90;;;9.30;99.90;;;;;;5046294;28;20021;-76
2021/11/07 02:41:47;;;;;;;1.30;0.82;;;9.30;99.90;;;;;;5045116;28;20083;-75
2021/11/07 02:44:37;;;;;;;1.35;0.80;;;9.40;99.90;;;;;;5046498;28;20429;-77
2021/11/07 02:47:05;;;;;;;20.65;1.27;;;9.40;99.90;;;;;;5045207;28;20030;-78
2021/11/07 02:49:32;;;;;;;1.45;0.90;;;9.40;99.90;;;;;;5046357;28;20091;-74
2021/11/07 02:52:00;;;;;;;1.55;0.88;;;9.40;99.90;;;;;;5046353;28;20033;-80
2021/11/07 02:54:27;;;;;;;1.67;0.50;;;9.40;99.90;;;;;;5044976;28;20033;-84
2021/11/07 02:56:56;;;;;;;2.47;1.02;;;9.30;99.90;;;;;;5044868;28;20046;-79
2021/11/07 02:59:26;;;;;;;2.20;0.80;;;9.40;99.90;;;;;;5044796;28;20428;-79
2021/11/07 03:01:54;;;;;;;0.88;0.63;;;9.30;99.90;;;;;;5044893;28;20025;-80
2021/11/07 03:04:20;;;;;;;0.98;0.70;;;9.30;99.90;;;;;;5044632;28;20026;-75
2021/11/07 03:06:46;;;;;;;1.33;0.90;;;9.30;99.90;;;;;;5044687;28;20037;-78
2021/11/07 03:09:18;;;;;;;1.23;0.70;;;9.40;99.90;;;;;;5044821;28;20089;-79
2021/11/07 03:11:45;;;;;;;2.30;1.13;;;9.40;99.90;;;;;;5032062;28;20052;-76
2021/11/07 03:14:15;;;;;;;1.25;0.80;;;9.30;99.90;;;;;;5024683;28;20053;-78
2021/11/07 03:16:43;;;;;;;1.73;1.00;;;9.30;99.90;;;;;;5026174;28;20059;-78
2021/11/07 03:19:10;;;;;;;1.70;1.08;;;9.40;99.90;;;;;;5025445;28;20048;-79
2021/11/07 03:21:36;;;;;;;2.03;1.27;;;9.40;99.90;;;;;;5024860;28;20033;-77
2021/11/07 03:24:02;;;;;;;2.13;1.23;;;9.40;99.90;;;;;;5024309;28;20048;-77
2021/11/07 03:26:30;;;;;;;2.38;1.17;;;9.40;99.90;;;;;;5024554;28;20112;-76
2021/11/07 03:29:00;;;;;;;1.88;1.60;;;9.50;99.90;;;;;;5023956;28;20489;-78
2021/11/07 03:31:38;;;;;;;5.80;2.10;;;9.40;99.90;;;;;;5025938;28;20053;-76
2021/11/07 03:34:08;;;;;;;3.92;2.20;;;9.50;99.90;;;;;;5026109;28;20433;-77
2021/11/07 03:36:53;;;;;;;4.28;2.05;;;9.50;99.90;;;;;;5026463;28;20410;-75
2021/11/07 03:39:21;;;;;;;7.45;2.33;;;9.50;99.90;;;;;;5025756;28;20084;-74
2021/11/07 03:41:47;;;;;;;3.63;2.05;;;9.60;99.90;;;;;;5025741;28;20026;-75
2021/11/07 03:44:14;;;;;;;5.97;3.03;;;9.50;99.90;;;;;;5025370;28;20038;-78
2021/11/07 03:46:41;;;;;;;4.03;2.42;;;9.60;99.90;;;;;;5024423;28;20097;-77
2021/11/07 03:49:09;;;;;;;5.93;2.50;;;9.60;99.90;;;;;;5025771;28;20026;-78
2021/11/07 03:51:36;;;;;;;5.30;2.70;;;9.60;99.90;;;;;;5024414;28;20049;-78
2021/11/07 03:54:04;;;;;;;4.65;2.50;;;9.80;99.90;;;;;;5024181;28;20026;-74
2021/11/07 03:56:30;;;;;;;4.70;2.83;;;9.70;99.90;;;;;;5023849;28;20033;-78
2021/11/07 03:58:55;;;;;;;4.60;2.58;;;9.70;99.90;;;;;;5024964;28;20029;-76
2021/11/07 04:01:21;;;;;;;7.63;3.20;;;9.70;99.90;;;;;;5023784;28;20049;-78
2021/11/07 04:03:47;;;;;;;4.20;2.53;;;9.70;99.90;;;;;;5025066;28;20033;-78
2021/11/07 04:06:13;;;;;;;5.68;2.70;;;9.70;99.90;;;;;;5024130;28;20029;-77
2021/11/07 04:08:41;;;;;;;5.05;2.60;;;9.70;99.90;;;;;;5024072;28;20412;-78
2021/11/07 04:11:08;;;;;;;8.75;3.40;;;9.70;99.90;;;;;;5023997;28;20089;-79
2021/11/07 04:13:38;;;;;;;7.85;3.17;;;9.70;99.90;;;;;;5025055;28;20109;-78
2021/11/07 04:16:04;;;;;;;5.10;2.67;;;9.80;99.90;;;;;;5023826;28;20030;-76
2021/11/07 04:18:30;;;;;;;10.93;3.28;;;9.80;99.90;;;;;;5025082;28;20038;-77
2021/11/07 04:20:55;;;;;;;7.13;2.97;;;9.80;99.90;;;;;;5023693;28;20036;-75
2021/11/07 04:23:21;;;;;;;4.93;2.80;;;9.80;99.90;;;;;;5024892;28;20042;-77
2021/11/07 04:25:46;;;;;;;9.05;2.70;;;9.90;99.90;;;;;;5023612;28;20033;-76
2021/11/07 04:28:12;;;;;;;21.00;3.72;;;9.90;99.90;;;;;;5023182;28;20057;-79
2021/11/07 04:30:38;;;;;;;15.35;3.80;;;9.90;99.90;;;;;;5024723;28;20057;-78
2021/11/07 04:33:04;;;;;;;8.65;3.20;;;9.90;99.90;;;;;;5024861;28;20056;-80
2021/11/07 04:35:29;;;;;;;12.23;3.60;;;10.00;99.90;;;;;;5023429;28;20604;-74
2021/11/07 04:37:55;;;;;;;3.58;0.90;;;9.90;99.90;;;;;;5024713;28;20034;-76
2021/11/07 04:40:24;;;;;;;3.35;1.45;;;9.70;99.90;;;;;;5024736;28;20033;-78
2021/11/07 04:42:50;;;;;;;5.18;1.05;;;9.60;99.90;;;;;;5024726;28;20065;-72
2021/11/07 04:45:16;;;;;;;10.02;2.47;;;9.50;99.90;;;;;;5025003;28;20030;-77
2021/11/07 04:47:43;;;;;;;4.30;2.47;;;9.50;99.90;;;;;;5024632;28;20109;-73
2021/11/07 04:50:11;;;;;;;4.43;2.05;;;9.50;99.90;;;;;;5023287;28;20026;-72
2021/11/07 04:52:38;;;;;;;9.38;3.28;;;9.50;99.90;;;;;;5025026;28;20030;-74
2021/11/07 04:55:06;;;;;;;8.95;2.53;;;9.60;99.90;;;;;;5024600;28;20034;-74
2021/11/07 04:57:31;;;;;;;13.88;2.15;;;9.60;99.90;;;;;;5024415;28;20085;-73
2021/11/07 04:59:57;;;;;;;4.15;1.90;;;9.60;99.90;;;;;;5024519;28;20026;-73
2021/11/07 05:02:23;;;;;;;8.65;2.92;;;9.60;99.90;;;;;;5024763;28;20124;-76
2021/11/07 05:04:53;;;;;;;9.50;2.47;;;9.60;99.90;;;;;;5024773;28;20457;-77
2021/11/07 05:07:19;;;;;;;4.30;2.10;;;9.60;99.90;;;;;;5023159;28;20030;-79
2021/11/07 05:09:44;;;;;;;12.30;2.10;;;9.60;99.90;;;;;;5023194;28;20060;-78
2021/11/07 05:12:10;;;;;;;12.90;2.47;;;9.60;99.90;;;;;;5023374;28;20041;-81
2021/11/07 05:14:36;;;;;;;3.28;1.42;;;9.50;99.90;;;;;;5023226;28;20030;-79
2021/11/07 05:17:02;;;;;;;5.63;2.22;;;9.50;99.90;;;;;;5023219;28;20030;-75
2021/11/07 05:19:28;;;;;;;6.88;1.80;;;9.50;99.90;;;;;;5024470;28;20034;-78
2021/11/07 05:21:54;;;;;;;6.90;2.20;;;9.40;99.90;;;;;;5024495;28;20085;-77
2021/11/07 05:24:20;;;;;;;7.07;1.98;;;9.40;99.90;;;;;;5022821;28;20033;-74
2021/11/07 05:26:47;;;;;;;4.20;1.50;;;9.40;99.90;;;;;;5023180;28;20026;-75
2021/11/07 05:29:12;;;;;;;5.25;1.17;;;9.30;99.90;;;;;;5022853;28;20057;-75
2021/11/07 05:31:38;;;;;;;7.32;2.38;;;9.30;99.90;;;;;;5024676;28;20034;-78
2021/11/07 05:34:04;;;;;;;9.80;2.13;;;9.20;99.90;;;;;;5022942;28;20402;-78
2021/11/07 05:36:31;;;;;;;10.25;1.45;;;9.20;99.90;;;;;;5024336;28;20093;-78
2021/11/07 05:38:57;;;;;;;7.78;1.45;;;9.20;99.90;;;;;;5024049;28;20543;-77
2021/11/07 05:41:23;;;;;;;12.63;1.88;;;9.10;99.90;;;;;;5024369;28;20490;-75
2021/11/07 05:43:49;;;;;;;4.32;1.55;;;9.20;99.90;;;;;;5025104;28;20121;-77
2021/11/07 05:46:14;;;;;;;3.47;1.83;;;9.10;99.90;;;;;;5028280;28;20037;-78
2021/11/07 05:48:40;;;;;;;17.73;1.60;;;9.10;99.90;;;;;;5027846;28;20026;-79
2021/11/07 05:51:07;;;;;;;17.65;2.20;;;9.20;99.90;;;;;;5026593;28;20030;-76
2021/11/07 05:53:33;;;;;;;4.57;1.90;;;9.20;99.90;;;;;;5026464;28;20057;-77
2021/11/07 05:55:59;;;;;;;9.50;2.05;;;9.20;99.90;;;;;;5027737;28;20026;-74
2021/11/07 05:58:25;;;;;;;11.93;3.28;;;9.30;99.90;;;;;;5027446;28;20026;-75
2021/11/07 06:00:50;;;;;;;6.68;2.08;;;9.30;99.90;;;;;;5027456;28;20112;-76
2021/11/07 06:03:16;;;;;;;7.53;2.45;;;9.30;99.90;;;;;;5027348;28;20048;-78
2021/11/07 06:05:42;;;;;;;10.40;2.55;;;9.30;99.90;;;;;;5026489;28;20030;-75
2021/11/07 06:08:08;;;;;;;16.20;2.42;;;9.40;99.90;;;;;;5026299;28;20029;-78
2021/11/07 06:10:33;;;;;;;17.25;2.78;;;9.40;99.90;;;;;;5027295;28;20077;-75
2021/11/07 06:12:59;;;;;;;9.38;2.55;;;9.40;99.90;;;;;;5027280;28;20057;-76
2021/11/07 06:15:25;;;;;;;3.10;1.65;;;9.40;99.90;;;;;;5027262;28;20022;-78
2021/11/07 06:17:50;;;;;;;12.25;1.67;;;9.40;99.90;;;;;;5027313;28;20030;-77
2021/11/07 06:20:16;;;;;;;2.97;1.80;;;9.40;99.90;;;;;;5025999;28;20036;-77
2021/11/07 06:22:42;;;;;;;5.00;1.50;;;9.30;99.90;;;;;;5027235;28;20064;-76
2021/11/07 06:25:08;;;;;;;8.02;2.85;;;9.30;99.90;;;;;;5027213;28;20018;-74
2021/11/07 06:27:35;;;;;;;13.20;2.17;;;9.30;99.90;;;;;;5026957;28;20441;-73
2021/11/07 06:30:03;;;;;;;17.25;2.20;;;9.20;99.90;;;;;;5026870;28;20046;-74
2021/11/07 06:32:29;;;;;;;7.43;1.90;;;9.20;99.90;;;;;;5026915;28;20033;-74
2021/11/07 06:34:54;;;;;;;17.67;1.83;;;9.10;99.90;;;;;;5025457;28;20030;-77
2021/11/07 06:37:20;;;;;;;9.60;1.55;;;9.10;99.90;;;;;;5025284;28;20026;-76
2021/11/07 06:39:46;;;;;;;10.93;1.75;;;9.00;99.90;;;;;;5026656;28;20028;-80
2021/11/07 06:42:12;;;;;;;3.58;1.35;;;9.00;99.90;;;;;;5038743;28;20076;-79
2021/11/07 06:44:39;;;;;;;6.05;1.15;;;9.00;99.90;;;;;;5026716;28;20041;-80
2021/11/07 06:47:08;;;;;;;7.47;1.83;;;8.90;99.90;;;;;;5026747;28;20041;-74
2021/11/07 06:49:34;;;;;;;14.45;1.92;;;8.90;99.90;;;;;;5026481;28;20037;-77
2021/11/07 06:52:00;;;;;;;10.15;1.25;;;8.90;99.90;;;;;;5026607;28;20039;-73
2021/11/07 06:54:27;;;;;;;9.35;2.75;;;8.80;99.90;;;;;;5028313;28;20033;-74
2021/11/07 06:56:53;;;;;;;6.20;1.90;;;8.80;99.90;;;;;;5035869;28;20022;-75
2021/11/07 06:59:19;;;;;;;13.93;2.30;;;8.80;99.90;;;;;;5040888;28;20030;-75
2021/11/07 07:01:45;;;;;;;6.82;0.88;;;8.80;99.90;;;;;;5036190;28;20029;-77
2021/11/07 07:04:11;;;;;;;9.52;1.73;;;8.80;99.90;;;;;;5039262;28;20041;-77
2021/11/07 07:06:39;;;;;;;1.92;1.05;;;8.80;99.90;;;;;;5046311;28;20018;-79
2021/11/07 07:09:11;;;;;;;6.65;2.10;;;8.80;99.90;;;;;;5042429;28;20381;-76
2021/11/07 07:11:47;;;;;;;12.57;1.92;;;8.80;99.90;;;;;;5043461;28;20030;-75
2021/11/07 07:14:32;;;;;;;18.48;1.95;;;8.80;99.90;;;;;;5036559;28;20033;-75
2021/11/07 07:17:17;;;;;;;6.38;1.38;;;8.80;99.90;;;;;;5041804;28;20036;-74
2021/11/07 07:22:27;;;;;;;18.63;2.00;;;8.80;99.90;;;;;;5044948;28;20044;-78
2021/11/07 07:28:23;;;;;;;17.90;1.75;;;8.70;99.90;;;;;;5052950;28;20401;-76
2021/11/07 07:33:46;;;;;;;11.63;2.05;;;8.80;99.90;;;;;;5037080;28;20044;-77
2021/11/07 07:35:43;;;;;;;12.35;1.17;;;8.70;99.90;;;;;;5031447;28;20052;-78
2021/11/07 07:38:10;;;;;;;7.85;1.55;;;8.70;99.90;;;;;;5039834;28;20030;-78
2021/11/07 07:40:36;;;;;;;10.02;1.17;;;8.80;99.90;;;;;;5043114;28;20052;-79
2021/11/07 07:43:02;;;;;;;9.43;2.17;;;8.80;99.90;;;;;;5056247;28;20033;-78
2021/11/07 07:45:29;;;;;;;4.65;2.03;;;8.80;99.90;;;;;;5028099;28;20034;-77
2021/11/07 07:47:56;;;;;;;4.32;1.45;;;8.80;99.90;;;;;;5027927;28;20029;-77
2021/11/07 07:50:23;;;;;;;12.70;1.67;;;8.90;99.90;;;;;;5031710;28;20025;-74
2021/11/07 07:52:49;;;;;;;4.28;1.27;;;8.90;99.90;;;;;;5033239;28;20094;-74
2021/11/07 07:55:16;;;;;;;3.50;1.25;;;8.90;99.90;;;;;;5032851;28;20498;-75
2021/11/07 07:57:45;;;;;;;3.83;1.35;;;8.90;99.90;;;;;;5045577;28;20033;-75
2021/11/07 08:00:12;;;;;;;10.10;2.25;;;9.00;99.90;;;;;;5042760;28;20032;-73
2021/11/07 08:02:38;;;;;;;3.55;1.33;;;9.00;99.90;;;;;;5043410;28;20037;-74
2021/11/07 08:05:04;;;;;;;1.85;1.13;;;8.90;99.90;;;;;;5043700;28;20030;-72
2021/11/07 08:07:30;;;;;;;5.72;1.80;;;8.90;99.90;;;;;;5041616;28;20022;-75
2021/11/07 08:09:56;;;;;;;20.10;2.28;;;8.90;99.90;;;;;;5042462;28;20061;-79
2021/11/07 08:12:24;;;;;;;5.55;1.00;;;8.90;99.90;;;;;;5024971;28;20112;-79
2021/11/07 08:14:50;;;;;;;7.65;2.13;;;8.90;99.90;;;;;;5032618;28;20021;-75
2021/11/07 08:17:17;;;;;;;2.55;1.02;;;8.90;99.90;;;;;;5034750;28;20118;-77
2021/11/07 08:19:45;;;;;;;7.38;1.63;;;8.90;99.90;;;;;;5025257;28;20025;-75
2021/11/07 08:22:11;;;;;;;10.85;1.73;;;8.90;99.90;;;;;;5025020;28;20482;-78
2021/11/07 08:24:39;;;;;;;6.78;1.60;;;8.90;99.90;;;;;;5059512;28;20052;-73
2021/11/07 08:27:06;;;;;;;10.20;1.55;;;8.90;99.90;;;;;;5044304;28;20088;-77
2021/11/07 08:29:32;;;;;;;12.32;1.92;;;9.00;99.90;;;;;;5052137;28;20132;-75
2021/11/07 08:31:58;;;;;;;20.27;3.78;;;8.90;99.90;;;;;;5055408;28;20593;-76
2021/11/07 08:34:28;;;;;;;9.10;1.52;;;9.10;99.90;;;;;;5051330;28;20028;-78
2021/11/07 08:39:35;;;;;;;3.28;1.58;;;9.40;99.90;;;;;;5047681;28;20093;-78
2021/11/07 08:42:06;;;;;;;9.43;1.48;;;9.50;99.90;;;;;;5043078;28;20123;-77
2021/11/07 09:04:40;;;;;;;4.97;1.13;;;9.90;99.90;;;;;;5002147;28;20077;-77
2021/11/07 09:07:36;;;;;;;5.35;1.15;;;10.00;99.90;;;;;;5066225;28;20033;-79
2021/11/07 09:09:59;;;;;;;6.28;1.70;;;10.10;99.90;;;;;;5032591;28;20025;-75
2021/11/07 09:12:27;;;;;;;7.93;1.95;;;10.30;99.90;;;;;;5023930;28;20030;-75
2021/11/07 09:14:53;;;;;;;8.18;1.25;;;10.30;99.90;;;;;;5024236;28;20105;-76
2021/11/07 09:17:20;;;;;;;1.98;1.00;;;10.30;99.90;;;;;;5023919;28;20474;-75
2021/11/07 09:19:52;;;;;;;3.78;0.90;;;10.20;99.90;;;;;;5027453;28;20471;-77
2021/11/07 09:22:28;;;;;;;18.20;2.88;;;10.20;99.90;;;;;;5027400;28;20045;-79
2021/11/07 09:24:58;;;;;;;6.68;1.20;;;10.00;99.90;;;;;;5042365;28;20047;-74
2021/11/07 09:27:29;;;;;;;3.83;1.10;;;10.00;99.90;;;;;;5046909;28;20053;-76
2021/11/07 09:33:10;;;;;;;4.30;0.60;;;9.90;99.90;;;;;;5020518;28;20125;-75
2021/11/07 09:35:44;;;;;;;9.35;1.10;;;9.90;99.90;;;;;;5048855;28;20477;-76
2021/11/07 09:38:25;;;;;;;1.50;0.43;;;9.80;99.90;;;;;;5060456;28;20036;-77
2021/11/07 09:41:13;;;;;;;3.58;0.70;;;9.80;99.90;;;;;;5042149;28;20379;-76
2021/11/07 09:43:45;;;;;;;7.90;1.52;;;9.80;99.90;;;;;;5043465;28;20401;-74
2021/11/07 09:48:45;;;;;;;6.35;1.50;;;9.70;99.90;;;;;;5027512;28;20088;-77
2021/11/07 09:51:17;;;;;;;7.85;1.45;;;9.80;99.90;;;;;;5046874;28;20354;-76
2021/11/07 09:53:54;;;;;;;6.10;1.52;;;9.90;99.90;;;;;;5043680;28;20378;-75
2021/11/07 09:56:21;;;;;;;8.80;1.13;;;10.10;99.90;;;;;;5042523;28;20043;-74
2021/11/07 09:58:50;;;;;;;4.07;1.98;;;10.30;99.90;;;;;;5042915;28;20099;-74
2021/11/07 10:01:18;;;;;;;10.38;1.85;;;10.50;99.90;;;;;;5041297;28;20029;-78
2021/11/07 10:03:45;;;;;;;4.68;0.82;;;10.70;99.90;;;;;;5040437;28;20044;-75
2021/11/07 10:06:53;;;;;;;5.43;0.63;;;10.80;99.90;;;;;;5041121;28;20026;-76
2021/11/07 10:09:37;;;;;;;7.30;1.35;;;10.90;99.90;;;;;;5011387;28;20041;-75
2021/11/07 10:12:14;;;;;;;4.97;1.67;;;11.10;99.90;;;;;;5050041;28;20033;-75
2021/11/07 10:14:48;;;;;;;5.57;1.20;;;11.10;99.90;;;;;;5033760;28;20033;-77
2021/11/07 10:17:27;;;;;;;16.10;1.67;;;11.10;99.90;;;;;;5036050;28;20418;-77
2021/11/07 10:20:08;;;;;;;4.93;1.15;;;11.20;99.90;;;;;;5039690;28;20025;-78
2021/11/07 10:22:35;;;;;;;4.75;1.70;;;11.30;99.90;;;;;;5040597;28;20065;-77
2021/11/07 10:25:06;;;;;;;10.82;2.65;;;11.40;99.90;;;;;;5038926;28;20124;-74
2021/11/07 10:27:39;;;;;;;10.60;1.02;;;11.60;99.90;;;;;;5053115;28;20026;-76
2021/11/07 10:30:20;;;;;;;8.85;1.58;;;11.70;99.90;;;;;;5047735;28;20779;-80
2021/11/07 10:38:36;;;;;;;3.10;1.27;;;12.10;99.90;;;;;;5032275;28;20039;-75
2021/11/07 10:41:35;;;;;;;19.02;1.88;;;12.30;99.90;;;;;;5043451;28;20037;-76
2021/11/07 10:44:23;;;;;;;2.78;0.82;;;12.60;99.90;;;;;;5041180;28;20041;-75
2021/11/07 10:46:59;;;;;;;6.88;1.27;;;13.00;99.90;;;;;;5035027;28;20167;-77
2021/11/07 10:52:21;;;;;;;16.25;2.78;;;13.20;99.90;;;;;;5044981;28;20063;-78
2021/11/07 10:54:48;;;;;;;9.77;3.28;;;13.20;99.90;;;;;;5043855;28;20030;-77
2021/11/07 10:57:25;;;;;;;10.13;1.92;;;13.20;99.90;;;;;;5036890;28;20030;-78
2021/11/07 11:00:10;;;;;;;4.82;0.88;;;13.20;99.90;;;;;;5041518;28;20026;-77
2021/11/07 11:02:40;;;;;;;8.32;1.35;;;13.20;99.90;;;;;;5043502;28;20045;-76
2021/11/07 11:05:12;;;;;;;7.25;1.65;;;13.10;99.90;;;;;;5037792;28;20052;-75
2021/11/07 11:08:21;;;;;;;8.30;1.83;;;13.20;99.90;;;;;;5045613;28;20025;-76
2021/11/07 11:24:41;;;;;;;8.93;1.73;;;14.00;99.90;;;;;;5045212;28;20086;-77
2021/11/07 11:43:09;;;;;;;17.17;2.10;;;13.60;99.90;;;;;;5030098;28;20046;-76
2021/11/07 11:45:39;;;;;;;9.23;2.35;;;13.60;99.90;;;;;;5032014;28;20036;-79
2021/11/07 11:51:18;;;;;;;17.30;1.48;;;13.50;99.90;;;;;;5037053;28;20055;-76
2021/11/07 11:54:09;;;;;;;3.72;1.80;;;13.60;99.90;;;;;;5043707;28;20029;-75
2021/11/07 12:02:38;;;;;;;11.88;1.88;;;13.80;99.90;;;;;;5044900;28;20033;-77
2021/11/07 12:05:48;;;;;;;3.72;1.67;;;14.00;99.90;;;;;;5045040;28;20029;-77
2021/11/07 12:08:20;;;;;;;4.60;1.42;;;13.90;99.90;;;;;;5043596;28;20084;-77
2021/11/07 12:10:59;;;;;;;8.00;2.05;;;13.90;99.90;;;;;;5028069;28;20390;-78
2021/11/07 12:13:40;;;;;;;7.35;1.05;;;13.70;99.90;;;;;;5025375;28;20026;-74
2021/11/07 12:16:15;;;;;;;8.48;1.70;;;13.70;99.90;;;;;;5024188;28;20038;-74
2021/11/07 12:19:00;;;;;;;5.32;1.52;;;13.80;99.90;;;;;;5025239;28;20025;-79
2021/11/07 12:21:51;;;;;;;5.32;1.45;;;13.90;99.90;;;;;;5027374;28;20079;-80
2021/11/07 12:24:19;;;;;;;6.20;1.80;;;13.80;99.90;;;;;;5032236;28;20050;-74
2021/11/07 12:26:45;;;;;;;6.25;2.10;;;13.70;99.90;;;;;;5024570;28;20062;-76
2021/11/07 12:29:12;;;;;;;7.80;1.38;;;13.60;99.90;;;;;;5024367;28;20061;-76
2021/11/07 12:31:58;;;;;;;14.77;2.40;;;13.40;99.90;;;;;;5023360;28;20041;-76
2021/11/07 12:34:43;;;;;;;7.18;2.00;;;13.60;99.90;;;;;;5024678;28;20065;-77
2021/11/07 12:43:06;;;;;;;9.90;2.83;;;13.30;99.90;;;;;;5038332;28;20649;-79
2021/11/07 12:45:38;;;;;;;6.63;2.08;;;13.60;99.90;;;;;;5041276;28;20033;-76
2021/11/07 12:48:07;;;;;;;3.28;0.98;;;13.40;99.90;;;;;;5041999;28;20084;-75
2021/11/07 12:51:02;;;;;;;8.75;1.85;;;12.90;99.90;;;;;;5042004;28;20915;-76
2021/11/07 12:53:49;;;;;;;7.45;2.58;;;12.90;99.90;;;;;;5038761;28;20025;-78
2021/11/07 12:56:27;;;;;;;4.95;1.25;;;12.60;99.90;;;;;;5036075;28;20029;-78
2021/11/07 12:58:53;;;;;;;8.30;1.55;;;12.20;99.90;;;;;;5036845;28;20038;-74
2021/11/07 13:01:20;;;;;;;11.90;1.98;;;11.80;99.90;;;;;;5033221;28;20119;-75
2021/11/07 13:03:51;;;;;;;13.57;1.58;;;11.50;99.90;;;;;;5035512;28;20045;-76
2021/11/07 13:06:17;;;;;;;7.22;1.58;;;11.40;99.90;;;;;;5042719;28;20093;-76
2021/11/07 13:08:54;;;;;;;3.33;0.95;;;11.50;99.90;;;;;;5049779;28;20029;-77
2021/11/07 13:11:26;;;;;;;8.13;1.05;;;11.80;99.90;;;;;;5047091;28;20076;-74
2021/11/07 13:14:06;;;;;;;3.35;1.48;;;12.40;99.90;;;;;;5045386;28;20045;-82
2021/11/07 13:16:52;;;;;;;2.28;1.17;;;12.30;99.90;;;;;;5036083;28;20033;-76
2021/11/07 13:22:09;;;;;;;12.02;1.23;;;11.70;99.90;;;;;;5039634;28;20517;-77
2021/11/07 13:27:42;;;;;;;3.25;1.83;;;11.90;99.90;;;;;;5025650;28;20045;-75
2021/11/07 13:30:17;;;;;;;4.45;1.73;;;12.70;99.90;;;;;;5026861;28;20437;-81
2021/11/07 13:32:43;;;;;;;3.45;1.02;;;13.60;99.90;;;;;;5026026;28;20034;-83
2021/11/07 13:35:18;;;;;;;6.82;2.58;;;13.50;99.90;;;;;;5028255;28;20034;-78
2021/11/07 13:37:52;;;;;;;9.85;1.65;;;13.40;99.90;;;;;;5047409;28;20038;-84
2021/11/07 13:40:23;;;;;;;0.77;0.57;;;13.80;99.90;;;;;;5045336;28;20038;-79
2021/11/07 13:42:49;;;;;;;10.60;2.20;;;14.10;99.90;;;;;;5040914;28;20565;-80
2021/11/07 13:45:32;;;;;;;4.05;1.35;;;14.30;99.90;;;;;;5035275;28;20082;-82
2021/11/07 13:48:00;;;;;;;9.73;1.73;;;14.40;99.90;;;;;;5034481;28;20057;-78
2021/11/07 13:50:32;;;;;;;11.80;2.20;;;14.10;99.90;;;;;;5033434;28;20383;-77
2021/11/07 13:53:00;;;;;;;3.15;1.42;;;13.60;99.90;;;;;;5025271;28;20041;-76
2021/11/07 13:55:32;;;;;;;1.63;0.88;;;13.20;99.90;;;;;;5028093;28;20025;-80
2021/11/07 13:58:20;;;;;;;6.00;1.38;;;13.30;99.90;;;;;;5042851;28;20032;-79
2021/11/07 14:00:50;;;;;;;9.50;1.23;;;13.90;99.90;;;;;;5046110;28;20033;-77
2021/11/07 14:03:19;;;;;;;5.68;1.40;;;14.20;99.90;;;;;;5044923;28;20097;-75
2021/11/07 14:06:18;;;;;;;2.78;1.33;;;14.10;99.90;;;;;;5036755;28;20071;-82
2021/11/07 14:08:46;;;;;;;15.68;1.67;;;13.90;99.90;;;;;;5046799;28;20059;-78
2021/11/07 14:11:21;;;;;;;14.02;1.45;;;13.70;99.90;;;;;;5062049;28;20163;-76
2021/11/07 14:13:52;;;;;;;9.90;1.52;;;13.40;99.90;;;;;;5035754;28;20033;-76
2021/11/07 14:16:32;;;;;;;8.10;1.33;;;13.10;99.90;;;;;;5044468;28;20367;-82
2021/11/07 14:19:07;;;;;;;1.77;1.08;;;12.80;99.90;;;;;;5038521;28;20041;-78
2021/11/07 14:21:36;;;;;;;8.55;1.63;;;12.60;99.90;;;;;;5046981;28;20029;-79
2021/11/07 14:29:23;;;;;;;6.30;1.55;;;12.40;99.90;;;;;;5046752;28;20069;-76
2021/11/07 14:31:57;;;;;;;9.30;1.75;;;12.40;99.90;;;;;;5041966;28;20037;-80
2021/11/07 14:34:42;;;;;;;3.78;0.95;;;12.40;99.90;;;;;;5033945;28;20030;-76
2021/11/07 14:37:18;;;;;;;7.88;0.88;;;12.20;99.90;;;;;;5032178;28;20036;-77
2021/11/07 14:40:03;;;;;;;9.57;1.70;;;12.00;99.90;;;;;;5046315;28;20025;-79
2021/11/07 14:48:20;;;;;;;1.08;0.73;;;11.50;99.90;;;;;;5043370;28;20055;-78
2021/11/07 14:53:43;;;;;;;9.80;1.02;;;11.20;99.90;;;;;;5031979;28;20072;-81
2021/11/07 14:59:18;;;;;;;5.43;1.35;;;11.20;99.90;;;;;;5027837;28;20053;-78
2021/11/07 15:01:55;;;;;;;5.30;1.38;;;11.10;99.90;;;;;;5055769;28;20065;-78
2021/11/07 15:04:38;;;;;;;9.30;1.90;;;11.00;99.90;;;;;;5065551;28;20033;-77
2021/11/07 15:07:10;;;;;;;3.65;1.73;;;10.90;99.90;;;;;;5038726;28;20680;-75
2021/11/07 15:12:37;;;;;;;4.15;1.23;;;10.80;99.90;;;;;;5045878;28;20032;-77
2021/11/07 15:18:01;;;;;;;9.35;2.10;;;10.60;99.90;;;;;;5045984;28;20033;-75
2021/11/07 15:20:35;;;;;;;21.38;2.65;;;10.50;99.90;;;;;;5060173;28;20036;-81
2021/11/07 15:23:01;;;;;;;5.13;1.13;;;10.40;99.90;;;;;;5068468;28;20049;-78
2021/11/07 15:25:30;;;;;;;4.43;1.65;;;10.30;99.90;;;;;;5025130;28;20480;-78
2021/11/07 15:28:03;;;;;;;7.70;2.33;;;10.10;99.90;;;;;;5056820;28;20093;-76
2021/11/07 15:30:33;;;;;;;10.25;1.63;;;10.00;99.90;;;;;;5039236;28;20033;-79